createdAt,value
2022-09-30T00:01:39.997Z,21.13
2022-09-30T00:05:43.279Z,18.73
2022-09-30T00:09:48.203Z,25.80
2022-09-30T00:13:53.162Z,22.80
2022-09-30T00:17:59.674Z,19.47
2022-09-30T00:22:02.880Z,19.80
2022-09-30T00:26:09.683Z,19.20
2022-09-30T00:30:13.212Z,19.53
2022-09-30T00:34:19.640Z,21.20
2022-09-30T00:38:23.003Z,18.80
2022-09-30T00:42:30.113Z,19.50
2022-09-30T00:46:44.416Z,18.07
2022-09-30T00:50:56.674Z,21.30
2022-09-30T00:55:01.869Z,21.50
2022-09-30T00:59:09.273Z,22.40
2022-09-30T01:03:12.590Z,20.00
2022-09-30T01:07:17.362Z,18.60
2022-09-30T01:11:21.239Z,18.63
2022-09-30T01:15:33.619Z,19.80
2022-09-30T01:20:14.386Z,18.83
2022-09-30T01:24:57.591Z,17.30
2022-09-30T01:29:30.067Z,17.97
2022-09-30T01:33:43.432Z,16.20
2022-09-30T01:37:56.953Z,14.47
2022-09-30T01:42:10.982Z,19.73
2022-09-30T01:46:21.121Z,16.60
2022-09-30T01:50:31.224Z,19.40
2022-09-30T01:54:41.811Z,19.30
2022-09-30T01:58:53.617Z,28.33
2022-09-30T02:03:00.785Z,15.13
2022-09-30T02:07:09.607Z,14.67
2022-09-30T02:11:17.645Z,17.20
2022-09-30T02:15:26.287Z,18.30
2022-09-30T02:19:34.973Z,15.83
2022-09-30T02:23:43.723Z,19.33
2022-09-30T02:27:53.489Z,14.53
2022-09-30T02:32:02.227Z,11.37
2022-09-30T02:36:09.791Z,14.17
2022-09-30T02:40:19.758Z,13.87
2022-09-30T02:44:23.141Z,12.40
2022-09-30T02:48:32.671Z,14.07
2022-09-30T02:52:47.442Z,13.10
2022-09-30T02:56:56.411Z,11.60
2022-09-30T03:00:59.792Z,14.20
2022-09-30T03:05:04.352Z,12.40
2022-09-30T03:09:09.142Z,15.87
2022-09-30T03:13:30.761Z,16.57
2022-09-30T03:18:13.404Z,11.23
2022-09-30T03:22:38.124Z,17.63
2022-09-30T03:26:52.674Z,14.70
2022-09-30T03:31:09.676Z,15.07
2022-09-30T03:35:20.551Z,12.33
2022-09-30T03:39:27.924Z,11.07
2022-09-30T03:43:34.484Z,20.00
2022-09-30T03:47:45.234Z,15.37
2022-09-30T03:51:50.950Z,21.00
2022-09-30T03:55:54.541Z,15.47
2022-09-30T03:59:57.826Z,15.10
2022-09-30T04:04:03.806Z,17.27
2022-09-30T04:08:07.029Z,17.77
2022-09-30T04:12:11.542Z,19.27
2022-09-30T04:16:14.884Z,21.90
2022-09-30T04:20:19.699Z,16.33
2022-09-30T04:24:23.728Z,19.90
2022-09-30T04:28:27.594Z,16.07
2022-09-30T04:32:30.844Z,17.50
2022-09-30T04:36:39.831Z,19.87
2022-09-30T04:40:43.043Z,16.30
2022-09-30T04:44:46.461Z,18.67
2022-09-30T04:48:50.487Z,18.73
2022-09-30T04:52:56.281Z,18.03
2022-09-30T04:56:59.656Z,17.47
2022-09-30T05:01:04.089Z,16.83
2022-09-30T05:05:08.698Z,19.30
2022-09-30T05:09:13.474Z,16.23
2022-09-30T05:13:16.886Z,13.70
2022-09-30T05:17:20.080Z,18.80
2022-09-30T05:21:23.412Z,16.73
2022-09-30T05:25:28.353Z,13.23
2022-09-30T05:29:32.072Z,15.83
2022-09-30T05:33:36.270Z,17.47
2022-09-30T05:37:39.607Z,16.30
2022-09-30T05:41:44.300Z,18.73
2022-09-30T05:45:54.140Z,17.10
2022-09-30T05:49:57.545Z,18.90
2022-09-30T05:54:00.862Z,20.30
2022-09-30T05:58:05.576Z,15.70
2022-09-30T06:02:10.473Z,15.43
2022-09-30T06:06:14.090Z,16.77
2022-09-30T06:10:17.686Z,12.00
2022-09-30T06:14:22.956Z,14.73
2022-09-30T06:18:27.738Z,11.63
2022-09-30T06:22:30.944Z,10.77
2022-09-30T06:26:34.349Z,9.77
2022-09-30T06:30:39.052Z,9.70
2022-09-30T06:34:42.488Z,8.77
2022-09-30T06:38:45.714Z,9.73
2022-09-30T06:42:49.374Z,10.87
2022-09-30T06:46:54.937Z,13.20
2022-09-30T06:51:02.198Z,15.80
2022-09-30T06:55:06.419Z,9.57
2022-09-30T06:59:09.979Z,11.67
2022-09-30T07:03:29.509Z,12.70
2022-09-30T07:07:35.988Z,24.57
2022-09-30T07:11:40.089Z,10.70
2022-09-30T07:15:43.609Z,19.93
2022-09-30T07:19:52.170Z,16.20
2022-09-30T07:23:56.828Z,15.30
2022-09-30T07:28:01.385Z,10.30
2022-09-30T07:32:05.087Z,9.70
2022-09-30T07:36:10.809Z,9.77
2022-09-30T07:40:16.375Z,11.63
2022-09-30T07:44:20.176Z,8.87
2022-09-30T07:48:46.857Z,10.10
2022-09-30T07:52:51.716Z,7.90
2022-09-30T07:57:09.716Z,7.53
2022-09-30T08:01:14.211Z,9.60
2022-09-30T08:05:17.883Z,7.63
2022-09-30T08:09:25.355Z,10.40
2022-09-30T08:13:28.736Z,20.07
2022-09-30T08:17:32.139Z,10.10
2022-09-30T08:21:36.397Z,7.70
2022-09-30T08:25:41.559Z,5.63
2022-09-30T08:30:08.575Z,4.13
2022-09-30T08:34:08.772Z,4.50
2022-09-30T08:38:12.000Z,5.67
2022-09-30T08:42:50.580Z,5.97
2022-09-30T08:47:01.620Z,6.00
2022-09-30T08:51:16.785Z,6.40
2022-09-30T08:55:24.686Z,6.87
2022-09-30T08:59:36.252Z,8.20
2022-09-30T09:03:40.688Z,7.67
2022-09-30T09:07:53.372Z,7.30
2022-09-30T09:12:12.094Z,5.20
2022-09-30T09:16:26.508Z,4.10
2022-09-30T09:20:34.810Z,5.30
2022-09-30T09:24:43.392Z,4.23
2022-09-30T09:28:58.845Z,4.13
2022-09-30T09:33:21.435Z,7.60
2022-09-30T09:37:44.721Z,8.23
2022-09-30T09:42:00.564Z,4.40
2022-09-30T09:46:14.657Z,3.30
2022-09-30T09:50:22.939Z,5.57
2022-09-30T09:54:31.269Z,18.30
2022-09-30T09:58:34.870Z,6.90
2022-09-30T10:02:39.969Z,10.07
2022-09-30T10:06:52.998Z,3.53
2022-09-30T10:10:59.154Z,7.87
2022-09-30T10:15:23.862Z,11.53
2022-09-30T10:19:29.730Z,2.77
2022-09-30T10:23:37.792Z,3.20
2022-09-30T10:27:54.991Z,6.90
2022-09-30T10:32:00.018Z,1.90
2022-09-30T10:36:12.896Z,1.90
2022-09-30T10:40:22.706Z,2.93
2022-09-30T10:44:26.152Z,5.20
2022-09-30T10:48:32.754Z,7.00
2022-09-30T10:52:40.128Z,2.50
2022-09-30T10:56:47.049Z,2.80
2022-09-30T11:00:55.193Z,2.57
2022-09-30T11:05:05.014Z,1.70
2022-09-30T11:09:14.181Z,2.20
2022-09-30T11:13:25.082Z,1.67
2022-09-30T11:17:35.124Z,3.33
2022-09-30T11:21:43.653Z,2.63
2022-09-30T11:25:54.714Z,1.90
2022-09-30T11:30:10.378Z,1.90
2022-09-30T11:34:32.754Z,2.80
2022-09-30T11:38:49.051Z,1.80
2022-09-30T11:43:06.278Z,3.00
2022-09-30T11:47:46.754Z,1.80
2022-09-30T11:51:59.373Z,2.07
2022-09-30T11:56:14.084Z,2.00
2022-09-30T12:00:18.727Z,1.83
2022-09-30T12:04:31.728Z,2.33
2022-09-30T12:08:38.851Z,2.07
2022-09-30T12:12:43.014Z,3.13
2022-09-30T12:16:49.134Z,1.80
2022-09-30T12:20:57.837Z,2.40
2022-09-30T12:25:03.143Z,1.90
2022-09-30T12:29:33.321Z,2.63
2022-09-30T12:33:56.908Z,3.77
2022-09-30T12:38:26.027Z,2.27
2022-09-30T12:43:06.584Z,2.13
2022-09-30T12:47:23.351Z,1.47
2022-09-30T12:51:31.664Z,1.37
2022-09-30T12:55:42.820Z,1.73
2022-09-30T12:59:52.877Z,1.40
2022-09-30T13:04:19.490Z,1.50
2022-09-30T13:08:48.528Z,1.50
2022-09-30T13:13:18.257Z,1.80
2022-09-30T13:17:28.587Z,2.83
2022-09-30T13:21:32.378Z,2.07
2022-09-30T13:25:55.410Z,2.30
2022-09-30T13:30:01.774Z,2.57
2022-09-30T13:34:12.203Z,2.30
2022-09-30T13:38:20.444Z,2.17
2022-09-30T13:42:29.653Z,1.80
2022-09-30T13:46:40.060Z,2.20
2022-09-30T13:50:48.551Z,1.67
2022-09-30T13:54:55.138Z,1.57
2022-09-30T13:59:21.698Z,1.83
2022-09-30T14:03:44.884Z,1.37
2022-09-30T14:08:08.295Z,1.90
2022-09-30T14:12:26.577Z,1.90
2022-09-30T14:17:12.458Z,4.60
2022-09-30T14:21:34.261Z,1.70
2022-09-30T14:25:51.279Z,1.83
2022-09-30T14:30:06.667Z,2.87
2022-09-30T14:34:12.848Z,3.00
2022-09-30T14:38:22.304Z,2.47
2022-09-30T14:42:35.033Z,11.97
2022-09-30T14:46:42.014Z,2.00
2022-09-30T14:50:49.337Z,3.17
2022-09-30T14:54:55.190Z,2.70
2022-09-30T14:58:59.463Z,2.60
2022-09-30T15:03:02.904Z,2.70
2022-09-30T15:07:11.052Z,7.20
2022-09-30T15:11:26.010Z,4.30
2022-09-30T15:15:36.587Z,3.53
2022-09-30T15:19:45.418Z,3.67
2022-09-30T15:23:52.389Z,3.07
2022-09-30T15:27:57.382Z,2.73
2022-09-30T15:32:04.942Z,6.00
2022-09-30T15:36:15.985Z,5.13
2022-09-30T15:40:51.067Z,3.93
2022-09-30T15:44:56.893Z,8.67
2022-09-30T15:49:02.874Z,4.23
2022-09-30T15:53:15.587Z,3.67
2022-09-30T15:57:44.539Z,5.17
2022-09-30T16:01:51.055Z,3.13
2022-09-30T16:06:01.249Z,5.30
2022-09-30T16:10:07.056Z,6.90
2022-09-30T16:14:18.765Z,5.30
2022-09-30T16:18:28.222Z,4.13
2022-09-30T16:22:51.684Z,3.90
2022-09-30T16:26:56.759Z,4.23
2022-09-30T16:30:59.966Z,5.13
2022-09-30T16:35:05.333Z,9.07
2022-09-30T16:39:10.128Z,4.93
2022-09-30T16:43:13.498Z,6.00
2022-09-30T16:47:18.085Z,5.80
2022-09-30T16:51:22.715Z,6.80
2022-09-30T16:55:26.781Z,6.23
2022-09-30T16:59:32.707Z,4.93
2022-09-30T17:03:35.948Z,4.63
2022-09-30T17:07:41.421Z,8.03
2022-09-30T17:11:44.677Z,5.27
2022-09-30T17:15:52.753Z,5.53
2022-09-30T17:19:56.615Z,6.37
2022-09-30T17:24:01.500Z,6.00
2022-09-30T17:28:04.987Z,4.37
2022-09-30T17:32:08.935Z,5.63
2022-09-30T17:36:15.091Z,6.07
2022-09-30T17:40:38.095Z,5.07
2022-09-30T17:44:50.960Z,5.20
2022-09-30T17:48:58.579Z,6.37
2022-09-30T17:53:06.008Z,8.03
2022-09-30T17:57:12.140Z,6.60
2022-09-30T18:01:16.961Z,7.13
2022-09-30T18:05:20.553Z,6.67
2022-09-30T18:09:24.824Z,6.80
2022-09-30T18:13:30.824Z,7.10
2022-09-30T18:17:34.400Z,9.80
2022-09-30T18:21:40.346Z,7.83
2022-09-30T18:25:44.284Z,8.97
2022-09-30T18:29:49.922Z,8.33
2022-09-30T18:33:58.627Z,7.37
2022-09-30T18:38:03.677Z,9.93
2022-09-30T18:42:07.107Z,8.13
2022-09-30T18:46:13.936Z,9.40
2022-09-30T18:50:17.986Z,11.43
2022-09-30T18:54:22.083Z,9.03
2022-09-30T18:58:26.411Z,10.47
2022-09-30T19:02:35.703Z,10.33
2022-09-30T19:06:45.732Z,9.37
2022-09-30T19:10:51.496Z,10.97
2022-09-30T19:14:57.432Z,31.07
2022-09-30T19:19:08.275Z,56.57
2022-09-30T19:23:11.954Z,19.30
2022-09-30T19:27:22.054Z,24.30
2022-09-30T19:31:28.177Z,13.53
2022-09-30T19:35:40.972Z,12.40
2022-09-30T19:39:48.347Z,10.10
2022-09-30T19:43:53.430Z,11.40
2022-09-30T19:47:58.879Z,8.60
2022-09-30T19:52:15.015Z,8.47
2022-09-30T19:56:24.099Z,7.90
2022-09-30T20:00:33.085Z,11.00
2022-09-30T20:04:38.096Z,8.37
2022-09-30T20:08:45.720Z,8.57
2022-09-30T20:12:56.646Z,9.47
2022-09-30T20:17:00.179Z,9.20
2022-09-30T20:21:08.611Z,10.60
2022-09-30T20:25:14.073Z,8.03
2022-09-30T20:29:21.036Z,7.83
2022-09-30T20:33:27.101Z,17.70
2022-09-30T20:37:30.930Z,12.13
2022-09-30T20:41:38.069Z,10.03
2022-09-30T20:45:42.649Z,9.33
2022-09-30T20:49:46.390Z,9.43
2022-09-30T20:53:52.381Z,9.03
2022-09-30T20:57:57.076Z,10.50
2022-09-30T21:02:00.818Z,8.70
2022-09-30T21:06:04.841Z,7.80
2022-09-30T21:10:08.718Z,10.40
2022-09-30T21:14:13.415Z,8.43
2022-09-30T21:18:17.577Z,9.27
2022-09-30T21:22:20.945Z,8.17
2022-09-30T21:26:25.816Z,7.93
2022-09-30T21:30:30.944Z,9.23
2022-09-30T21:34:35.938Z,8.57
2022-09-30T21:38:39.290Z,8.37
2022-09-30T21:42:42.775Z,8.63
2022-09-30T21:46:50.294Z,8.13
2022-09-30T21:50:53.762Z,9.70
2022-09-30T21:54:57.353Z,9.10
2022-09-30T21:59:00.998Z,8.60
2022-09-30T22:03:05.965Z,8.87
2022-09-30T22:07:09.403Z,9.37
2022-09-30T22:11:15.912Z,9.80
2022-09-30T22:15:19.323Z,9.20
2022-09-30T22:19:24.303Z,9.73
2022-09-30T22:23:27.600Z,9.43
2022-09-30T22:27:32.917Z,9.03
2022-09-30T22:31:36.531Z,10.70
2022-09-30T22:35:59.718Z,11.17
2022-09-30T22:40:03.391Z,9.97
2022-09-30T22:44:07.693Z,10.40
2022-09-30T22:48:11.201Z,9.93
2022-09-30T22:52:16.254Z,11.07
2022-09-30T22:56:21.743Z,11.17
2022-09-30T23:00:25.701Z,10.23
2022-09-30T23:04:29.311Z,10.63
2022-09-30T23:08:41.530Z,12.50
2022-09-30T23:12:44.928Z,11.40
2022-09-30T23:16:48.904Z,10.90
2022-09-30T23:20:56.554Z,12.83
2022-09-30T23:25:02.621Z,12.20
2022-09-30T23:29:07.795Z,12.17
2022-09-30T23:33:12.089Z,11.80
2022-09-30T23:37:16.135Z,11.50
2022-09-30T23:41:20.959Z,11.93
2022-09-30T23:45:24.525Z,13.60
2022-09-30T23:49:28.096Z,14.60
2022-09-30T23:53:32.275Z,14.40
2022-09-30T23:57:37.141Z,12.77
